Time;durP1;ratioP1;P1;durP2;ratioP2;P2;SDS_P1;SDS_P2;PMS_P1;PMS_P2;Temp;Humidity;BMP_temperature;BMP_pressure;BME280_temperature;BME280_humidity;BME280_pressure;Samples;Min_cycle;Max_cycle;Signal;HPM_P1;HPM_P2
2022/04/11 00:01:03;;;;;;;1999.90;999.90;;;6.60;99.90;;;;;;5012451;28;20169;-70
2022/04/11 00:03:29;;;;;;;1999.90;999.90;;;6.70;99.90;;;;;;5012415;28;20171;-70
2022/04/11 00:05:55;;;;;;;1999.90;999.90;;;6.70;99.90;;;;;;5012178;28;20209;-70
2022/04/11 00:08:21;;;;;;;1999.90;999.90;;;6.70;99.90;;;;;;5012446;28;20511;-70
2022/04/11 00:10:48;;;;;;;1999.90;999.90;;;6.70;99.90;;;;;;5012250;28;20526;-70
2022/04/11 00:13:14;;;;;;;1999.90;999.90;;;6.60;99.90;;;;;;5012310;28;20470;-70
2022/04/11 00:15:43;;;;;;;1999.90;999.90;;;6.60;99.90;;;;;;5012010;28;20428;-70
2022/04/11 00:18:09;;;;;;;1999.90;999.90;;;6.60;99.90;;;;;;5012275;28;20411;-70
2022/04/11 00:20:35;;;;;;;1999.90;999.90;;;6.60;99.90;;;;;;5012279;28;20450;-70
2022/04/11 00:23:04;;;;;;;1999.90;999.90;;;6.50;99.90;;;;;;5012211;28;20456;-70
2022/04/11 00:25:29;;;;;;;1999.90;999.90;;;6.50;99.90;;;;;;5011775;28;20439;-70
2022/04/11 00:27:55;;;;;;;1999.90;999.90;;;6.50;99.90;;;;;;5012220;28;20404;-70
2022/04/11 00:30:20;;;;;;;1999.90;999.90;;;6.40;99.90;;;;;;5012124;28;20227;-70
2022/04/11 00:32:46;;;;;;;1999.90;999.90;;;6.40;99.90;;;;;;5012101;28;20219;-70
2022/04/11 00:35:12;;;;;;;1999.90;999.90;;;6.40;99.90;;;;;;5011809;28;20554;-70
2022/04/11 00:37:38;;;;;;;1999.90;999.90;;;6.40;99.90;;;;;;5012099;28;20231;-70
2022/04/11 00:40:06;;;;;;;1999.90;999.90;;;6.40;99.90;;;;;;5012025;28;20447;-70
2022/04/11 00:42:32;;;;;;;1999.90;999.90;;;6.30;99.90;;;;;;5012083;28;20988;-70
2022/04/11 00:45:02;;;;;;;1999.90;999.90;;;6.30;99.90;;;;;;5011676;28;20492;-70
2022/04/11 00:47:28;;;;;;;1999.90;999.90;;;6.20;99.90;;;;;;5012099;28;20419;-70
2022/04/11 00:50:00;;;;;;;1999.90;999.90;;;6.20;99.90;;;;;;5012003;28;20479;-70
2022/04/11 00:52:28;;;;;;;1999.90;999.90;;;6.20;99.90;;;;;;5014278;28;20863;-70
2022/04/11 00:54:53;;;;;;;1999.90;999.90;;;6.30;99.90;;;;;;5015386;28;20407;-70
2022/04/11 00:57:20;;;;;;;1999.90;999.90;;;6.20;99.90;;;;;;5015796;28;20462;-70
2022/04/11 00:59:46;;;;;;;1999.90;999.90;;;6.20;99.90;;;;;;5015734;28;20630;-70
2022/04/11 01:02:12;;;;;;;1999.90;999.90;;;6.20;99.90;;;;;;5015961;28;20470;-70
2022/04/11 01:04:42;;;;;;;1999.90;999.90;;;6.20;99.90;;;;;;5015417;28;20173;-70
2022/04/11 01:07:08;;;;;;;1999.90;999.90;;;6.10;99.90;;;;;;5015530;28;20173;-70
2022/04/11 01:09:34;;;;;;;1999.90;999.90;;;6.10;99.90;;;;;;5015528;28;20984;-70
2022/04/11 01:12:02;;;;;;;1999.90;999.90;;;6.10;99.90;;;;;;5015496;28;20491;-70
2022/04/11 01:14:27;;;;;;;1999.90;999.90;;;6.00;99.90;;;;;;5015311;28;20826;-70
2022/04/11 01:16:53;;;;;;;1999.90;999.90;;;6.00;99.90;;;;;;5015313;28;20490;-70
2022/04/11 01:19:20;;;;;;;1999.90;999.90;;;6.00;99.90;;;;;;5015539;28;20677;-70
2022/04/11 01:21:46;;;;;;;1999.90;999.90;;;6.00;99.90;;;;;;5015374;28;20181;-70
2022/04/11 01:24:13;;;;;;;1999.90;999.90;;;6.00;99.90;;;;;;5015103;28;20404;-70
2022/04/11 01:26:39;;;;;;;1999.90;999.90;;;6.10;99.90;;;;;;5015193;28;20439;-70
2022/04/11 01:29:08;;;;;;;1999.90;999.90;;;6.00;99.90;;;;;;5015137;28;20980;-70
2022/04/11 01:31:34;;;;;;;1999.90;999.90;;;6.00;99.90;;;;;;5015109;28;20466;-70
2022/04/11 01:34:00;;;;;;;1999.90;999.90;;;6.00;99.90;;;;;;5014881;28;20400;-70
2022/04/11 01:36:26;;;;;;;1999.90;999.90;;;6.00;99.90;;;;;;5014927;28;20788;-70
2022/04/11 01:38:51;;;;;;;1999.90;999.90;;;6.00;99.90;;;;;;5015011;28;20873;-70
2022/04/11 01:41:19;;;;;;;1999.90;999.90;;;6.00;99.90;;;;;;5015041;28;20227;-70
2022/04/11 01:43:45;;;;;;;1999.90;999.90;;;6.00;99.90;;;;;;5014915;28;20180;-70
2022/04/11 01:46:11;;;;;;;1999.90;999.90;;;5.90;99.90;;;;;;5014559;28;20431;-70
2022/04/11 01:48:36;;;;;;;1999.90;999.90;;;5.90;99.90;;;;;;5014873;28;20169;-70
2022/04/11 01:51:02;;;;;;;1999.90;999.90;;;5.80;99.90;;;;;;5014738;28;20207;-70
2022/04/11 01:53:28;;;;;;;1999.90;999.90;;;5.90;99.90;;;;;;5014748;28;20169;-70
2022/04/11 01:55:53;;;;;;;1999.90;999.90;;;5.90;99.90;;;;;;5014266;28;20452;-70
2022/04/11 01:58:19;;;;;;;1999.90;999.90;;;5.90;99.90;;;;;;5014693;28;20165;-70
2022/04/11 02:00:45;;;;;;;1999.90;999.90;;;5.90;99.90;;;;;;5014577;28;20173;-70
2022/04/11 02:03:11;;;;;;;1999.90;999.90;;;6.00;99.90;;;;;;5013660;28;20235;-70
2022/04/11 02:05:37;;;;;;;1999.90;999.90;;;6.00;99.90;;;;;;5014173;28;20219;-70
2022/04/11 02:08:05;;;;;;;1999.90;999.90;;;6.00;99.90;;;;;;5014454;28;20857;-70
2022/04/11 02:10:30;;;;;;;1999.90;999.90;;;6.10;99.90;;;;;;5014497;28;20479;-70
2022/04/11 02:12:56;;;;;;;1999.90;999.90;;;6.00;99.90;;;;;;5014438;28;20941;-70
2022/04/11 02:15:22;;;;;;;1999.90;999.90;;;6.00;99.90;;;;;;5013984;28;20420;-70
2022/04/11 02:17:50;;;;;;;1999.90;999.90;;;5.90;99.90;;;;;;5014326;28;20192;-71
2022/04/11 02:20:16;;;;;;;1999.90;999.90;;;5.90;99.90;;;;;;5014243;28;20411;-70
2022/04/11 02:22:52;;;;;;;1999.90;999.90;;;5.90;99.90;;;;;;5014210;28;20401;-70
2022/04/11 02:25:20;;;;;;;1999.90;999.90;;;5.80;99.90;;;;;;5013792;28;20430;-70
2022/04/11 02:27:46;;;;;;;1999.90;999.90;;;5.90;99.90;;;;;;5014175;28;20455;-70
2022/04/11 02:30:14;;;;;;;1999.90;999.90;;;5.80;99.90;;;;;;5013960;28;20483;-70
2022/04/11 02:32:40;;;;;;;1999.90;999.90;;;5.80;99.90;;;;;;5013987;28;20440;-70
2022/04/11 02:35:06;;;;;;;1999.90;999.90;;;5.70;99.90;;;;;;5013719;28;20420;-70
2022/04/11 02:37:33;;;;;;;1999.90;999.90;;;5.70;99.90;;;;;;5013934;28;20404;-70
2022/04/11 02:39:58;;;;;;;1999.90;999.90;;;5.60;99.90;;;;;;5015289;28;20412;-70
2022/04/11 02:42:25;;;;;;;1999.90;999.90;;;5.60;99.90;;;;;;5015970;28;20485;-70
2022/04/11 02:44:52;;;;;;;1999.90;999.90;;;5.50;99.90;;;;;;5015298;28;20169;-70
2022/04/11 02:47:18;;;;;;;1999.90;999.90;;;5.50;99.90;;;;;;5015453;28;20404;-70
2022/04/11 02:49:43;;;;;;;1999.90;999.90;;;5.40;99.90;;;;;;5016212;28;20408;-70
2022/04/11 02:52:09;;;;;;;1999.90;999.90;;;5.40;99.90;;;;;;5016012;28;20456;-70
2022/04/11 02:54:39;;;;;;;1999.90;999.90;;;5.30;99.90;;;;;;5015495;28;20256;-70
2022/04/11 02:57:05;;;;;;;1999.90;999.90;;;5.40;99.90;;;;;;5014243;28;20534;-70
2022/04/11 02:59:35;;;;;;;1999.90;999.90;;;5.40;99.90;;;;;;5013424;28;20426;-70
2022/04/11 03:02:02;;;;;;;1999.90;999.90;;;5.40;99.90;;;;;;5013709;28;20404;-70
2022/04/11 03:04:27;;;;;;;1999.90;999.90;;;5.30;99.90;;;;;;5013167;28;20404;-70
2022/04/11 03:06:54;;;;;;;1999.90;999.90;;;5.30;99.90;;;;;;5013314;28;20435;-70
2022/04/11 03:09:20;;;;;;;1999.90;999.90;;;5.30;99.90;;;;;;5013386;28;20188;-70
2022/04/11 03:11:46;;;;;;;1999.90;999.90;;;5.30;99.90;;;;;;5013263;28;20887;-70
2022/04/11 03:14:12;;;;;;;1999.90;999.90;;;5.30;99.90;;;;;;5012810;28;20403;-70
2022/04/11 03:16:37;;;;;;;1999.90;999.90;;;5.30;99.90;;;;;;5013168;28;20188;-70
2022/04/11 03:19:04;;;;;;;1999.90;999.90;;;5.20;99.90;;;;;;5013215;28;20166;-70
2022/04/11 03:21:29;;;;;;;1999.90;999.90;;;5.30;99.90;;;;;;5013135;28;20161;-70
2022/04/11 03:23:55;;;;;;;1999.90;999.90;;;5.30;99.90;;;;;;5013009;28;20418;-70
2022/04/11 03:26:20;;;;;;;1999.90;999.90;;;5.30;99.90;;;;;;5012814;28;20567;-70
2022/04/11 03:28:46;;;;;;;1999.90;999.90;;;5.30;99.90;;;;;;5012935;28;20164;-70
2022/04/11 03:31:12;;;;;;;1999.90;999.90;;;5.30;99.90;;;;;;5012841;28;20710;-70
2022/04/11 03:33:37;;;;;;;1999.90;999.90;;;5.20;99.90;;;;;;5012957;28;20168;-70
2022/04/11 03:36:04;;;;;;;1999.90;999.90;;;5.20;99.90;;;;;;5012556;28;20192;-70
2022/04/11 03:38:29;;;;;;;1999.90;999.90;;;5.20;99.90;;;;;;5012984;28;20226;-70
2022/04/11 03:40:55;;;;;;;1999.90;999.90;;;5.30;99.90;;;;;;5012792;28;20808;-70
2022/04/11 03:43:21;;;;;;;1999.90;999.90;;;5.30;99.90;;;;;;5012645;28;20404;-70
2022/04/11 03:45:46;;;;;;;1999.90;999.90;;;5.30;99.90;;;;;;5012310;28;20201;-70
2022/04/11 03:48:12;;;;;;;1999.90;999.90;;;5.30;99.90;;;;;;5012685;28;20168;-70
2022/04/11 03:50:38;;;;;;;1999.90;999.90;;;5.20;99.90;;;;;;5012607;28;20196;-70
2022/04/11 03:53:05;;;;;;;1999.90;999.90;;;5.20;99.90;;;;;;5012703;28;20670;-70
2022/04/11 03:55:30;;;;;;;1999.90;999.90;;;5.10;99.90;;;;;;5012128;28;20439;-70
2022/04/11 03:57:56;;;;;;;1999.90;999.90;;;5.10;99.90;;;;;;5012494;28;20936;-70
2022/04/11 04:00:21;;;;;;;1999.90;999.90;;;5.00;99.90;;;;;;5012470;28;20177;-70
2022/04/11 04:02:47;;;;;;;1999.90;999.90;;;5.00;99.90;;;;;;5012523;28;20177;-70
2022/04/11 04:05:13;;;;;;;1999.90;999.90;;;4.90;99.90;;;;;;5012121;28;20189;-70
2022/04/11 04:07:38;;;;;;;1999.90;999.90;;;4.90;99.90;;;;;;5012514;28;20177;-70
2022/04/11 04:10:05;;;;;;;1999.90;999.90;;;4.90;99.90;;;;;;5012280;28;20199;-70
2022/04/11 04:12:31;;;;;;;1999.90;999.90;;;4.90;99.90;;;;;;5012168;28;20192;-70
2022/04/11 04:14:56;;;;;;;1999.90;999.90;;;4.80;99.90;;;;;;5011948;28;20762;-70
2022/04/11 04:17:22;;;;;;;1999.90;999.90;;;4.80;99.90;;;;;;5012274;28;20404;-70
2022/04/11 04:19:48;;;;;;;1999.90;999.90;;;4.60;99.90;;;;;;5012341;28;20248;-70
2022/04/11 04:22:14;;;;;;;1999.90;999.90;;;4.50;99.90;;;;;;5012211;28;20483;-70
2022/04/11 04:24:40;;;;;;;1999.90;999.90;;;4.50;99.90;;;;;;5011985;28;20173;-70
2022/04/11 04:27:06;;;;;;;1999.90;999.90;;;4.50;99.90;;;;;;5016142;28;20408;-70
2022/04/11 04:29:32;;;;;;;1999.90;999.90;;;4.40;99.90;;;;;;5018768;28;20942;-70
2022/04/11 04:31:58;;;;;;;1999.90;999.90;;;4.40;99.90;;;;;;5018787;28;20451;-70
2022/04/11 04:34:25;;;;;;;1999.90;999.90;;;4.30;99.90;;;;;;5018488;28;20535;-70
2022/04/11 04:36:52;;;;;;;1999.90;999.90;;;4.20;99.90;;;;;;5018636;28;20605;-70
2022/04/11 04:39:17;;;;;;;1999.90;999.90;;;4.20;99.90;;;;;;5018633;28;20491;-70
2022/04/11 04:41:43;;;;;;;1999.90;999.90;;;4.20;99.90;;;;;;5018544;28;20523;-70
2022/04/11 04:44:08;;;;;;;1999.90;999.90;;;4.30;99.90;;;;;;5018315;28;20169;-70
2022/04/11 04:46:35;;;;;;;1999.90;999.90;;;4.30;99.90;;;;;;5018567;28;20557;-70
2022/04/11 04:49:01;;;;;;;1999.90;999.90;;;4.30;99.90;;;;;;5018580;28;20179;-70
2022/04/11 04:51:27;;;;;;;1999.90;999.90;;;4.40;99.90;;;;;;5018475;28;20455;-70
2022/04/11 04:53:52;;;;;;;1999.90;999.90;;;4.40;99.90;;;;;;5018458;28;20912;-70
2022/04/11 04:56:18;;;;;;;1999.90;999.90;;;4.40;99.90;;;;;;5017914;28;20204;-70
2022/04/11 04:58:47;;;;;;;1999.90;999.90;;;4.40;99.90;;;;;;5018476;28;20179;-70
2022/04/11 05:01:13;;;;;;;1999.90;999.90;;;4.40;99.90;;;;;;5018413;28;20173;-70
2022/04/11 05:03:39;;;;;;;1999.90;999.90;;;4.40;99.90;;;;;;5018386;28;20404;-70
2022/04/11 05:06:04;;;;;;;1999.90;999.90;;;4.30;99.90;;;;;;5018004;28;20485;-70
2022/04/11 05:08:31;;;;;;;1999.90;999.90;;;4.30;99.90;;;;;;5018373;28;20677;-70
2022/04/11 05:10:57;;;;;;;1999.90;999.90;;;4.20;99.90;;;;;;5018147;28;20192;-70
2022/04/11 05:13:22;;;;;;;1999.90;999.90;;;4.20;99.90;;;;;;5018310;28;20176;-70
2022/04/11 05:15:48;;;;;;;1999.90;999.90;;;4.20;99.90;;;;;;5017956;28;20185;-70
2022/04/11 05:18:14;;;;;;;1999.90;999.90;;;4.20;99.90;;;;;;5018391;28;20173;-69
2022/04/11 05:20:40;;;;;;;1999.90;999.90;;;4.20;99.90;;;;;;5018273;28;20717;-70
2022/04/11 05:23:06;;;;;;;1999.90;999.90;;;4.30;99.90;;;;;;5016882;28;20165;-70
2022/04/11 05:25:32;;;;;;;1999.90;999.90;;;4.30;99.90;;;;;;5017788;28;20334;-70
2022/04/11 05:27:58;;;;;;;1999.90;999.90;;;4.40;99.90;;;;;;5018348;28;20173;-70
2022/04/11 05:30:23;;;;;;;1999.90;999.90;;;4.40;99.90;;;;;;5018060;28;20534;-70
2022/04/11 05:32:49;;;;;;;1999.90;999.90;;;4.50;99.90;;;;;;5018177;28;20898;-70
2022/04/11 05:35:15;;;;;;;1999.90;999.90;;;4.50;99.90;;;;;;5017728;28;20240;-70
2022/04/11 05:37:40;;;;;;;1999.90;999.90;;;4.60;99.90;;;;;;5016435;28;20173;-70
2022/04/11 05:40:09;;;;;;;1999.90;999.90;;;4.60;99.90;;;;;;5014612;28;20177;-70
2022/04/11 05:42:37;;;;;;;1999.90;999.90;;;4.70;99.90;;;;;;5014980;28;20169;-70
2022/04/11 05:45:05;;;;;;;1999.90;999.90;;;4.90;99.90;;;;;;5014745;28;20929;-70
2022/04/11 05:47:31;;;;;;;1999.90;999.90;;;4.90;99.90;;;;;;5014843;28;20901;-70
2022/04/11 05:49:57;;;;;;;1999.90;999.90;;;4.90;99.90;;;;;;5014782;28;20458;-70
2022/04/11 05:52:22;;;;;;;1999.90;999.90;;;5.00;99.90;;;;;;5014713;28;20224;-70
2022/04/11 05:54:48;;;;;;;1999.90;999.90;;;5.10;99.90;;;;;;5014230;28;20161;-70
2022/04/11 05:57:14;;;;;;;1999.90;999.90;;;5.20;99.90;;;;;;5014735;28;20172;-70
2022/04/11 05:59:39;;;;;;;1999.90;999.90;;;5.20;99.90;;;;;;5014896;28;20409;-70
2022/04/11 06:02:05;;;;;;;1999.90;999.90;;;5.20;99.90;;;;;;5014600;28;20165;-70
2022/04/11 06:04:31;;;;;;;1999.90;999.90;;;5.30;99.90;;;;;;5014386;28;20192;-70
2022/04/11 06:06:58;;;;;;;1999.90;999.90;;;5.40;99.90;;;;;;5014435;28;20482;-70
2022/04/11 06:09:24;;;;;;;1999.90;999.90;;;5.50;99.90;;;;;;5014376;28;20165;-70
2022/04/11 06:11:49;;;;;;;1999.90;999.90;;;5.60;99.90;;;;;;5014390;28;20478;-70
2022/04/11 06:14:15;;;;;;;1999.90;999.90;;;5.60;99.90;;;;;;5014080;28;20204;-70
2022/04/11 06:16:40;;;;;;;1999.90;999.90;;;5.70;99.90;;;;;;5014317;28;20327;-70
2022/04/11 06:19:06;;;;;;;1999.90;999.90;;;5.80;99.90;;;;;;5014352;28;20219;-70
2022/04/11 06:21:31;;;;;;;1999.90;999.90;;;6.00;99.90;;;;;;5014192;28;20247;-70
2022/04/11 06:23:57;;;;;;;1999.90;999.90;;;6.00;99.90;;;;;;5014067;28;20200;-70
2022/04/11 06:26:23;;;;;;;1999.90;999.90;;;6.10;99.90;;;;;;5013903;28;20221;-70
2022/04/11 06:28:48;;;;;;;1999.90;999.90;;;6.10;99.90;;;;;;5014100;28;20682;-70
2022/04/11 06:31:14;;;;;;;1999.90;999.90;;;6.20;99.90;;;;;;5014077;28;20232;-70
2022/04/11 06:33:40;;;;;;;1999.90;999.90;;;6.30;99.90;;;;;;5013952;28;20173;-70
2022/04/11 06:36:06;;;;;;;1999.90;999.90;;;6.30;99.90;;;;;;5013594;28;20819;-70
2022/04/11 06:38:32;;;;;;;1999.90;999.90;;;6.50;99.90;;;;;;5013794;28;20408;-70
2022/04/11 06:40:57;;;;;;;1999.90;999.90;;;6.60;99.90;;;;;;5013876;28;20410;-70
2022/04/11 06:43:23;;;;;;;1999.90;999.90;;;6.70;99.90;;;;;;5013772;28;20174;-70
2022/04/11 06:45:50;;;;;;;1999.90;999.90;;;6.80;99.90;;;;;;5013480;28;20693;-70
2022/04/11 06:48:15;;;;;;;1999.90;999.90;;;6.90;99.90;;;;;;5013680;28;20450;-70
2022/04/11 06:50:42;;;;;;;1999.90;999.90;;;7.00;99.90;;;;;;5013229;28;20483;-70
2022/04/11 06:53:08;;;;;;;1999.90;999.90;;;7.10;99.90;;;;;;5013826;28;20181;-70
2022/04/11 06:55:34;;;;;;;1999.90;999.90;;;7.20;99.90;;;;;;5013182;28;20451;-70
2022/04/11 06:58:00;;;;;;;1999.90;999.90;;;7.40;99.90;;;;;;5013714;28;20192;-70
2022/04/11 07:00:25;;;;;;;1999.90;999.90;;;7.50;99.90;;;;;;5013511;28;20166;-70
2022/04/11 07:02:51;;;;;;;1999.90;999.90;;;7.60;99.90;;;;;;5013529;28;20184;-70
2022/04/11 07:05:16;;;;;;;1999.90;999.90;;;7.70;99.90;;;;;;5013051;28;20592;-70
2022/04/11 07:07:42;;;;;;;1999.90;999.90;;;7.80;99.90;;;;;;5013342;28;20178;-70
2022/04/11 07:10:09;;;;;;;1999.90;999.90;;;7.80;99.90;;;;;;5013341;28;20224;-70
2022/04/11 07:12:41;;;;;;;1999.90;999.90;;;7.90;99.90;;;;;;5013360;28;20650;-70
2022/04/11 07:15:08;;;;;;;1999.90;999.90;;;8.00;99.90;;;;;;5012902;28;20453;-70
2022/04/11 07:17:34;;;;;;;1999.90;999.90;;;8.10;99.90;;;;;;5013116;28;20404;-70
2022/04/11 07:20:01;;;;;;;1999.90;999.90;;;8.20;99.90;;;;;;5013105;28;20416;-70
2022/04/11 07:22:26;;;;;;;1999.90;999.90;;;8.30;99.90;;;;;;5013061;28;20500;-70
2022/04/11 07:24:52;;;;;;;1999.90;999.90;;;8.40;99.90;;;;;;5012765;28;20431;-70
2022/04/11 07:27:18;;;;;;;1999.90;999.90;;;8.60;99.90;;;;;;5013085;28;20219;-70
2022/04/11 07:29:43;;;;;;;1999.90;999.90;;;8.70;99.90;;;;;;5012910;28;20177;-70
2022/04/11 07:32:09;;;;;;;1999.90;999.90;;;8.90;99.90;;;;;;5012971;28;20582;-70
2022/04/11 07:34:35;;;;;;;1999.90;999.90;;;9.00;99.90;;;;;;5012575;28;20187;-71
2022/04/11 07:37:01;;;;;;;1999.90;999.90;;;9.00;99.90;;;;;;5012749;28;20421;-70
2022/04/11 07:39:29;;;;;;;1999.90;999.90;;;9.10;99.90;;;;;;5012881;28;20530;-70
2022/04/11 07:41:55;;;;;;;1999.90;999.90;;;9.30;99.90;;;;;;5012929;28;20421;-71
2022/04/11 07:44:21;;;;;;;1999.90;999.90;;;9.40;99.90;;;;;;5012436;28;20927;-70
2022/04/11 07:46:47;;;;;;;1999.90;999.90;;;9.70;99.90;;;;;;5012649;28;20453;-70
2022/04/11 07:49:12;;;;;;;1999.90;999.90;;;9.80;99.90;;;;;;5012622;28;20415;-70
2022/04/11 07:51:38;;;;;;;1999.90;999.90;;;9.90;99.90;;;;;;5012490;28;20203;-71
2022/04/11 07:54:03;;;;;;;1999.90;999.90;;;10.00;99.90;;;;;;5012324;28;20172;-70
2022/04/11 07:56:29;;;;;;;1999.90;999.90;;;10.10;99.90;;;;;;5012339;28;20293;-70
2022/04/11 07:58:58;;;;;;;1999.90;999.90;;;10.10;99.90;;;;;;5012578;28;20178;-70
2022/04/11 08:01:24;;;;;;;1999.90;999.90;;;10.20;99.90;;;;;;5007625;28;20172;-70
2022/04/11 08:03:50;;;;;;;1999.90;999.90;;;10.30;99.90;;;;;;5011282;28;20410;-70
2022/04/11 08:06:16;;;;;;;1999.90;999.90;;;10.40;99.90;;;;;;5011198;28;21004;-70
2022/04/11 08:08:46;;;;;;;1999.90;999.90;;;10.50;99.90;;;;;;5011389;28;20406;-70
2022/04/11 08:11:13;;;;;;;1999.90;999.90;;;10.50;99.90;;;;;;5011950;28;20459;-70
2022/04/11 08:13:39;;;;;;;1999.90;999.90;;;10.60;99.90;;;;;;5011886;28;20411;-70
2022/04/11 08:16:06;;;;;;;1999.90;999.90;;;10.70;99.90;;;;;;5011160;28;20493;-70
2022/04/11 08:18:32;;;;;;;1999.90;999.90;;;10.70;99.90;;;;;;5011898;28;20503;-70
2022/04/11 08:20:57;;;;;;;1999.90;999.90;;;10.90;99.90;;;;;;5011948;28;20447;-70
2022/04/11 08:23:23;;;;;;;1999.90;999.90;;;10.90;99.90;;;;;;5011009;28;20450;-70
2022/04/11 08:25:49;;;;;;;1999.90;999.90;;;11.00;99.90;;;;;;5011405;28;20195;-70
2022/04/11 08:28:15;;;;;;;1999.90;999.90;;;11.10;99.90;;;;;;5011901;28;20182;-70
2022/04/11 08:30:42;;;;;;;1999.90;999.90;;;11.20;99.90;;;;;;5011261;28;20446;-70
2022/04/11 08:33:07;;;;;;;1999.90;999.90;;;11.30;99.90;;;;;;5011626;28;20411;-70
2022/04/11 08:35:33;;;;;;;1999.90;999.90;;;11.50;99.90;;;;;;5011362;28;20424;-70
2022/04/11 08:37:59;;;;;;;1999.90;999.90;;;11.60;99.90;;;;;;5011301;28;20178;-71
2022/04/11 08:40:24;;;;;;;1999.90;999.90;;;11.60;99.90;;;;;;5011804;28;20181;-70
2022/04/11 08:42:51;;;;;;;1999.90;999.90;;;11.70;99.90;;;;;;5011629;28;20248;-70
2022/04/11 08:45:20;;;;;;;1999.90;999.90;;;11.80;99.90;;;;;;5010813;28;20205;-70
2022/04/11 08:47:47;;;;;;;1999.90;999.90;;;11.90;99.90;;;;;;5009648;28;20420;-71
2022/04/11 08:50:13;;;;;;;1999.90;999.90;;;12.10;99.90;;;;;;5011897;28;20451;-71
2022/04/11 08:52:39;;;;;;;1999.90;999.90;;;12.20;99.90;;;;;;5011213;28;20400;-70
2022/04/11 08:57:31;;;;;;;1999.90;999.90;;;12.30;99.90;;;;;;5030008;22;20496;-69
2022/04/11 09:00:03;;;;;;;1999.90;999.90;;;12.40;99.90;;;;;;4991363;28;20440;-69
2022/04/11 09:02:33;;;;;;;1999.90;999.90;;;12.50;99.90;;;;;;4991792;28;20428;-68
2022/04/11 09:04:59;;;;;;;1999.90;999.90;;;12.50;99.90;;;;;;4991474;28;20412;-68
2022/04/11 09:07:25;;;;;;;1999.90;999.90;;;12.50;99.90;;;;;;4991363;28;20425;-68
2022/04/11 09:09:51;;;;;;;1999.90;999.90;;;12.50;99.90;;;;;;4991725;28;20401;-68
2022/04/11 09:12:19;;;;;;;1999.90;999.90;;;12.60;99.90;;;;;;4992206;28;20166;-67
2022/04/11 09:14:51;;;;;;;1999.90;999.90;;;12.60;99.90;;;;;;4994470;28;20175;-68
2022/04/11 09:17:17;;;;;;;1999.90;999.90;;;12.60;99.90;;;;;;4995592;28;20429;-67
2022/04/11 09:19:43;;;;;;;1999.90;999.90;;;12.60;99.90;;;;;;4995523;28;20511;-68
2022/04/11 09:22:09;;;;;;;1999.90;999.90;;;12.80;99.90;;;;;;5001492;28;20977;-67
2022/04/11 09:24:35;;;;;;;1999.90;999.90;;;13.00;99.90;;;;;;5005000;28;20452;-67
2022/04/11 09:27:02;;;;;;;1999.90;999.90;;;13.10;99.90;;;;;;4998744;28;20189;-70
2022/04/11 09:29:32;;;;;;;1999.90;999.90;;;13.20;99.90;;;;;;5011009;28;20796;-69
2022/04/11 09:32:04;;;;;;;1999.90;999.90;;;13.30;99.90;;;;;;5000788;28;20491;-68
2022/04/11 09:34:30;;;;;;;1999.90;999.90;;;13.40;99.90;;;;;;4994376;28;20412;-69
2022/04/11 09:36:57;;;;;;;1999.90;999.90;;;13.50;99.90;;;;;;4998109;28;20521;-69
2022/04/11 09:39:30;;;;;;;1999.90;999.90;;;13.60;99.90;;;;;;4994907;28;20784;-70
2022/04/11 09:41:55;;;;;;;1999.90;999.90;;;13.40;96.50;;;;;;4996564;28;20946;-70
2022/04/11 09:44:32;;;;;;;1999.90;999.90;;;13.50;94.80;;;;;;5000376;28;20448;-71
2022/04/11 09:46:59;;;;;;;1999.90;999.90;;;13.60;97.70;;;;;;4998225;28;20609;-70
2022/04/11 09:49:26;;;;;;;1999.90;999.90;;;13.70;94.50;;;;;;4996541;28;20405;-71
2022/04/11 09:52:12;;;;;;;1999.90;999.90;;;13.70;95.70;;;;;;4999882;28;20561;-70
2022/04/11 09:54:42;;;;;;;1999.90;999.90;;;13.90;97.70;;;;;;4993835;28;20456;-69
2022/04/11 09:57:08;;;;;;;1999.90;999.90;;;14.10;93.90;;;;;;4994460;28;20466;-69
2022/04/11 09:59:35;;;;;;;1999.90;999.90;;;14.10;92.90;;;;;;4994114;28;20409;-69
2022/04/11 10:02:01;;;;;;;1999.90;999.90;;;14.20;92.00;;;;;;5001479;28;20419;-69
2022/04/11 10:04:27;;;;;;;1999.90;999.90;;;14.20;92.30;;;;;;4994515;28;20913;-71
2022/04/11 10:06:53;;;;;;;1999.90;999.90;;;14.40;96.50;;;;;;4994349;28;20955;-71
2022/04/11 10:09:22;;;;;;;1999.90;999.90;;;14.40;86.70;;;;;;4995459;28;20424;-71
2022/04/11 10:11:48;;;;;;;1999.90;999.90;;;14.30;92.20;;;;;;4995469;28;20543;-71
2022/04/11 10:14:23;;;;;;;1999.90;999.90;;;14.30;91.30;;;;;;4994036;28;20409;-71
2022/04/11 10:16:52;;;;;;;1999.90;999.90;;;14.30;91.60;;;;;;4994400;28;20427;-71
2022/04/11 10:19:26;;;;;;;1999.90;999.90;;;14.40;91.30;;;;;;4994438;28;20399;-71
2022/04/11 10:21:55;;;;;;;1999.90;999.90;;;14.60;86.80;;;;;;4993897;28;20483;-71
2022/04/11 10:24:37;;;;;;;1999.90;999.90;;;14.60;82.70;;;;;;4992994;28;20422;-71
2022/04/11 10:27:22;;;;;;;1999.90;999.90;;;14.40;84.60;;;;;;4994222;28;20457;-71
2022/04/11 10:29:52;;;;;;;1999.90;999.90;;;14.60;85.20;;;;;;4993402;28;20418;-71
2022/04/11 10:32:21;;;;;;;1999.90;999.90;;;14.70;80.50;;;;;;4994091;28;20436;-71
2022/04/11 10:34:58;;;;;;;1999.90;999.90;;;14.80;85.90;;;;;;4993392;28;20429;-71
2022/04/11 10:37:26;;;;;;;1999.90;999.90;;;15.10;86.20;;;;;;4999023;28;20439;-71
2022/04/11 10:39:53;;;;;;;1999.90;999.90;;;15.40;89.80;;;;;;4994026;28;20405;-71
2022/04/11 10:42:22;;;;;;;1999.90;999.90;;;15.50;73.60;;;;;;4994094;28;20464;-71
2022/04/11 10:44:51;;;;;;;1999.90;999.90;;;15.50;72.60;;;;;;4993275;28;20414;-71
2022/04/11 10:47:21;;;;;;;1999.90;999.90;;;15.60;74.60;;;;;;4994041;28;20435;-71
2022/04/11 10:49:49;;;;;;;1999.90;999.90;;;15.70;69.30;;;;;;4994125;28;20409;-71
2022/04/11 10:52:36;;;;;;;1999.90;999.90;;;15.60;72.10;;;;;;4993709;28;20414;-71
2022/04/11 10:55:14;;;;;;;1999.90;999.90;;;15.80;59.60;;;;;;4993401;28;20404;-71
2022/04/11 10:57:48;;;;;;;1999.90;999.90;;;15.80;63.20;;;;;;4993759;28;20381;-71
2022/04/11 11:00:19;;;;;;;1999.90;999.90;;;15.50;60.00;;;;;;4993608;28;20399;-71
2022/04/11 11:02:56;;;;;;;1999.90;999.90;;;15.30;57.30;;;;;;4993916;28;20389;-71
2022/04/11 11:05:40;;;;;;;1999.90;999.90;;;15.50;69.20;;;;;;4992757;28;20396;-71
2022/04/11 11:08:17;;;;;;;1999.90;999.90;;;15.50;58.50;;;;;;4994030;28;20987;-71
2022/04/11 11:10:49;;;;;;;1999.90;999.90;;;15.60;64.40;;;;;;4993620;28;20447;-70
2022/04/11 11:13:39;;;;;;;1999.90;999.90;;;15.80;58.70;;;;;;4993509;28;20777;-71
2022/04/11 11:16:07;;;;;;;1999.90;999.90;;;16.00;55.00;;;;;;4992865;28;20482;-71
2022/04/11 11:21:15;;;;;;;1999.90;999.90;;;16.10;55.90;;;;;;4993387;28;20402;-71
2022/04/11 11:23:41;;;;;;;1999.90;999.90;;;16.30;53.00;;;;;;4993903;28;20511;-71
2022/04/11 11:26:12;;;;;;;1999.90;999.90;;;16.40;54.70;;;;;;4992953;28;21119;-71
2022/04/11 11:28:42;;;;;;;1999.90;999.90;;;16.60;56.50;;;;;;4993239;28;20167;-71
2022/04/11 11:31:08;;;;;;;1999.90;999.90;;;16.80;56.30;;;;;;4993684;28;20505;-71
2022/04/11 11:33:34;;;;;;;1999.90;999.90;;;17.00;56.00;;;;;;4993351;28;20804;-70
2022/04/11 11:36:02;;;;;;;1999.90;999.90;;;17.10;53.80;;;;;;4991955;28;20188;-71
2022/04/11 11:38:30;;;;;;;1999.90;999.90;;;17.30;56.00;;;;;;4992907;28;20658;-70
2022/04/11 11:40:57;;;;;;;1999.90;999.90;;;17.40;52.40;;;;;;4992932;28;20885;-71
2022/04/11 11:43:27;;;;;;;1999.90;999.90;;;17.30;54.60;;;;;;4992804;28;20492;-70
2022/04/11 11:45:57;;;;;;;1999.90;999.90;;;17.20;51.40;;;;;;4992628;28;20435;-71
2022/04/11 11:48:28;;;;;;;1999.90;999.90;;;17.50;55.00;;;;;;4992802;28;20407;-71
2022/04/11 11:50:56;;;;;;;1999.90;999.90;;;17.90;55.90;;;;;;4992134;28;20842;-71
2022/04/11 11:53:24;;;;;;;1999.90;999.90;;;18.20;57.20;;;;;;4992627;28;20413;-71
2022/04/11 11:55:56;;;;;;;1999.90;999.90;;;18.40;47.00;;;;;;4991680;28;20533;-71
2022/04/11 11:58:34;;;;;;;1999.90;999.90;;;18.90;46.30;;;;;;4992179;28;20413;-71
2022/04/11 12:00:59;;;;;;;1999.90;999.90;;;19.70;43.00;;;;;;4992402;28;20395;-71
2022/04/11 12:06:09;;;;;;;1999.90;999.90;;;21.00;41.60;;;;;;4991223;28;20206;-71
2022/04/11 12:08:35;;;;;;;1999.90;999.90;;;21.50;36.60;;;;;;4992438;28;20417;-71
2022/04/11 12:11:00;;;;;;;1999.90;999.90;;;21.30;31.70;;;;;;4992378;28;20198;-71
2022/04/11 12:13:29;;;;;;;1999.90;999.90;;;21.30;30.90;;;;;;4991821;28;20219;-71